createdAt,value
2022-10-09T00:01:31.814Z,10.1
2022-10-09T00:03:48.773Z,10.2
2022-10-09T00:06:05.722Z,9.5
2022-10-09T00:08:22.839Z,10.1
2022-10-09T00:10:39.876Z,9.3
2022-10-09T00:12:56.899Z,10.2
2022-10-09T00:15:13.902Z,10.2
2022-10-09T00:17:30.900Z,10.2
2022-10-09T00:19:48.165Z,10
2022-10-09T00:22:04.939Z,9.8
2022-10-09T00:24:21.960Z,10.3
2022-10-09T00:26:39.022Z,10.1
2022-10-09T00:28:55.123Z,9.8
2022-10-09T00:31:11.618Z,6
2022-10-09T00:33:28.533Z,9.9
2022-10-09T00:35:45.608Z,9.6
2022-10-09T00:38:01.789Z,10.2
2022-10-09T00:40:18.374Z,6.4
2022-10-09T00:42:34.583Z,10.1
2022-10-09T00:44:51.213Z,6
2022-10-09T00:47:07.333Z,9.7
2022-10-09T00:49:24.061Z,6
2022-10-09T00:51:40.956Z,9.9
2022-10-09T00:53:58.106Z,9.1
2022-10-09T00:56:15.075Z,9.8
2022-10-09T00:58:32.289Z,9.8
2022-10-09T01:00:49.259Z,9.3
2022-10-09T01:03:05.576Z,9.9
2022-10-09T01:05:22.257Z,6.1
2022-10-09T01:07:38.816Z,9.8
2022-10-09T01:09:56.000Z,10.1
2022-10-09T01:12:13.015Z,8.8
2022-10-09T01:14:30.191Z,9.1
2022-10-09T01:16:47.154Z,9.5
2022-10-09T01:19:04.553Z,10.3
2022-10-09T01:21:21.433Z,8.9
2022-10-09T01:23:37.954Z,9.5
2022-10-09T01:25:53.967Z,5.9
2022-10-09T01:28:10.851Z,5.8
2022-10-09T01:30:27.130Z,10.3
2022-10-09T01:32:43.595Z,5.8
2022-10-09T01:35:00.497Z,9.8
2022-10-09T01:37:17.313Z,9.8
2022-10-09T01:39:34.293Z,9.1
2022-10-09T01:41:51.227Z,9.2
2022-10-09T01:44:08.376Z,9.1
2022-10-09T01:46:25.335Z,9.2
2022-10-09T01:48:42.504Z,9.8
2022-10-09T01:51:00.492Z,9.8
2022-10-09T01:53:16.387Z,9.7
2022-10-09T01:55:33.425Z,9.3
2022-10-09T01:57:49.342Z,5.7
2022-10-09T02:00:06.188Z,9.3
2022-10-09T02:02:22.621Z,9.5
2022-10-09T02:04:39.196Z,5.5
2022-10-09T02:06:55.967Z,9
2022-10-09T02:09:13.052Z,9.2
2022-10-09T02:11:29.729Z,8.9
2022-10-09T02:13:46.772Z,9
2022-10-09T02:16:03.704Z,9.1
2022-10-09T02:18:20.387Z,9.3
2022-10-09T02:20:36.767Z,9.4
2022-10-09T02:22:53.138Z,5.6
2022-10-09T02:25:10.062Z,9.1
2022-10-09T02:27:26.812Z,9
2022-10-09T02:29:43.732Z,8.8
2022-10-09T02:32:00.550Z,9
2022-10-09T02:34:17.007Z,8.1
2022-10-09T02:36:33.438Z,5.4
2022-10-09T02:38:49.865Z,5.6
2022-10-09T02:41:06.670Z,9.1
2022-10-09T02:43:23.321Z,9.4
2022-10-09T02:45:40.271Z,9.2
2022-10-09T02:47:57.230Z,8.7
2022-10-09T02:50:14.220Z,8.9
2022-10-09T02:52:30.952Z,8.8
2022-10-09T02:54:47.856Z,9.2
2022-10-09T02:57:04.739Z,9
2022-10-09T02:59:21.797Z,8.8
2022-10-09T03:01:38.743Z,8.8
2022-10-09T03:03:55.346Z,8.6
2022-10-09T03:06:12.445Z,9
2022-10-09T03:08:28.727Z,9.1
2022-10-09T03:10:45.341Z,5.4
2022-10-09T03:13:02.013Z,9.5
2022-10-09T03:15:18.979Z,8.8
2022-10-09T03:17:35.583Z,9.2
2022-10-09T03:19:52.649Z,8.7
2022-10-09T03:22:09.519Z,8.4
2022-10-09T03:24:26.267Z,9.3
2022-10-09T03:26:43.049Z,8.3
2022-10-09T03:28:59.833Z,9.4
2022-10-09T03:31:33.310Z,8.4
2022-10-09T03:33:50.869Z,8.8
2022-10-09T03:36:07.573Z,8.8
2022-10-09T03:38:23.821Z,8.4
2022-10-09T03:40:40.203Z,5.5
2022-10-09T03:42:56.916Z,8.6
2022-10-09T03:45:13.630Z,9.3
2022-10-09T03:47:30.473Z,9.3
2022-10-09T03:49:46.895Z,9.5
2022-10-09T03:52:03.652Z,8.4
2022-10-09T03:54:20.361Z,8.8
2022-10-09T03:56:37.162Z,8.6
2022-10-09T03:58:53.748Z,8.7
2022-10-09T04:01:10.579Z,8.1
2022-10-09T04:03:26.676Z,8.1
2022-10-09T04:05:43.219Z,5.1
2022-10-09T04:07:59.784Z,9.4
2022-10-09T04:10:16.431Z,8.9
2022-10-09T04:12:33.159Z,8.8
2022-10-09T04:14:49.700Z,8.7
2022-10-09T04:17:06.456Z,8.4
2022-10-09T04:19:23.068Z,8.4
2022-10-09T04:21:40.048Z,9.1
2022-10-09T04:23:56.573Z,8.5
2022-10-09T04:26:13.525Z,7.8
2022-10-09T04:28:30.185Z,7.6
2022-10-09T04:30:46.941Z,8.4
2022-10-09T04:33:03.703Z,8.8
2022-10-09T04:35:20.121Z,9.2
2022-10-09T04:37:37.065Z,8.4
2022-10-09T04:39:53.811Z,9.1
2022-10-09T04:42:10.542Z,8.6
2022-10-09T04:44:27.218Z,8.9
2022-10-09T04:46:44.129Z,9.1
2022-10-09T04:49:00.814Z,8.8
2022-10-09T04:51:17.656Z,8.2
2022-10-09T04:53:33.856Z,8.6
2022-10-09T04:55:50.521Z,5
2022-10-09T04:58:07.143Z,9.2
2022-10-09T05:00:23.758Z,8.4
2022-10-09T05:02:40.268Z,8.9
2022-10-09T05:04:56.662Z,5.3
2022-10-09T05:07:13.487Z,5.4
2022-10-09T05:09:30.224Z,8.6
2022-10-09T05:11:47.224Z,9.3
2022-10-09T05:14:03.859Z,9.4
2022-10-09T05:16:20.812Z,9.1
2022-10-09T05:18:49.609Z,9.4
2022-10-09T05:21:05.793Z,6
2022-10-09T05:23:22.331Z,6.4
2022-10-09T05:25:39.071Z,6.7
2022-10-09T05:27:55.801Z,10.8
2022-10-09T05:30:12.190Z,11.4
2022-10-09T05:32:28.720Z,7.1
2022-10-09T05:34:45.427Z,11.3
2022-10-09T05:37:02.113Z,11.8
2022-10-09T05:39:18.894Z,11.4
2022-10-09T05:41:36.159Z,11.6
2022-10-09T05:43:52.632Z,12.2
2022-10-09T05:46:09.251Z,12.6
2022-10-09T05:48:26.196Z,12.3
2022-10-09T05:50:43.147Z,11.9
2022-10-09T05:53:00.196Z,12.3
2022-10-09T05:55:17.362Z,12.1
2022-10-09T05:57:34.302Z,12.9
2022-10-09T05:59:51.447Z,12.2
2022-10-09T06:02:08.517Z,12.6
2022-10-09T06:04:25.569Z,13.1
2022-10-09T06:06:41.685Z,14.2
2022-10-09T06:08:58.418Z,9.8
2022-10-09T06:11:14.879Z,14.1
2022-10-09T06:13:31.684Z,10.7
2022-10-09T06:15:48.791Z,15.3
2022-10-09T06:18:05.971Z,15.4
2022-10-09T06:20:22.957Z,15.8
2022-10-09T06:22:40.049Z,14.9
2022-10-09T06:24:57.091Z,15.3
2022-10-09T06:27:14.169Z,14.6
2022-10-09T06:29:31.674Z,16.6
2022-10-09T06:31:48.345Z,16.4
2022-10-09T06:34:05.267Z,17.9
2022-10-09T06:36:22.179Z,17.7
2022-10-09T06:38:39.181Z,18
2022-10-09T06:40:56.251Z,17.9
2022-10-09T06:43:13.054Z,18.1
2022-10-09T06:45:30.094Z,18.5
2022-10-09T06:47:47.019Z,18.1
2022-10-09T06:50:04.105Z,17.4
2022-10-09T06:52:21.073Z,19.4
2022-10-09T06:54:38.136Z,19.6
2022-10-09T06:56:55.120Z,20.1
2022-10-09T06:59:11.969Z,20.1
2022-10-09T07:01:29.025Z,20.9
2022-10-09T07:03:45.900Z,22.3
2022-10-09T07:06:02.713Z,22.4
2022-10-09T07:08:19.627Z,22.2
2022-10-09T07:10:36.396Z,23.3
2022-10-09T07:12:53.204Z,22.9
2022-10-09T07:15:10.295Z,24
2022-10-09T07:17:26.695Z,23.7
2022-10-09T07:19:43.479Z,25
2022-10-09T07:22:00.169Z,24.8
2022-10-09T07:24:16.952Z,25.2
2022-10-09T07:26:32.419Z,24.3
2022-10-09T07:28:48.744Z,23.1
2022-10-09T07:31:05.507Z,26.6
2022-10-09T07:33:22.210Z,26.6
2022-10-09T07:35:38.927Z,28.3
2022-10-09T07:37:54.499Z,28.5
2022-10-09T07:40:09.460Z,25.8
2022-10-09T07:42:25.882Z,25.5
2022-10-09T07:44:42.561Z,29.3
2022-10-09T07:46:59.220Z,29.1
2022-10-09T07:49:14.583Z,29.6
2022-10-09T07:51:30.877Z,27.6
2022-10-09T07:53:47.392Z,31.1
2022-10-09T07:56:03.871Z,33.7
2022-10-09T07:58:20.226Z,34.2
2022-10-09T08:00:36.912Z,35.6
2022-10-09T08:02:53.482Z,35.4
2022-10-09T08:05:09.251Z,37.2
2022-10-09T08:07:25.474Z,38.9
2022-10-09T08:09:41.752Z,39.8
2022-10-09T08:11:58.146Z,40.8
2022-10-09T08:14:18.176Z,42.1
2022-10-09T08:16:29.229Z,38.2
2022-10-09T08:18:45.643Z,43.1
2022-10-09T08:21:01.978Z,43.1
2022-10-09T08:23:18.362Z,43.1
2022-10-09T08:25:33.793Z,40.1
2022-10-09T08:27:49.537Z,33.6
2022-10-09T08:30:04.944Z,37.4
2022-10-09T08:32:19.975Z,31.5
2022-10-09T08:34:35.216Z,31
2022-10-09T08:36:50.874Z,30.7
2022-10-09T08:39:18.899Z,30.6
2022-10-09T08:41:34.546Z,38.4
2022-10-09T08:43:51.482Z,36.3
2022-10-09T08:46:06.659Z,44.8
2022-10-09T08:48:21.737Z,40
2022-10-09T08:50:37.477Z,40.6
2022-10-09T08:52:53.370Z,41.6
2022-10-09T08:55:09.055Z,42.2
2022-10-09T08:57:24.652Z,42.8
2022-10-09T08:59:40.639Z,43
2022-10-09T09:01:56.331Z,42.6
2022-10-09T09:04:12.263Z,43.3
2022-10-09T09:06:27.992Z,43.1
2022-10-09T09:08:43.784Z,43.4
2022-10-09T09:10:59.776Z,43.9
2022-10-09T09:13:15.653Z,43.1
2022-10-09T09:15:31.595Z,43.6
2022-10-09T09:17:47.409Z,43.1
2022-10-09T09:20:03.597Z,43.5
2022-10-09T09:22:19.428Z,43.8
2022-10-09T09:24:36.028Z,44.4
2022-10-09T09:26:52.688Z,49.9
2022-10-09T09:29:09.573Z,48.1
2022-10-09T09:31:25.649Z,48.9
2022-10-09T09:33:44.561Z,45.3
2022-10-09T09:35:57.095Z,48.7
2022-10-09T09:38:13.335Z,41.9
2022-10-09T09:41:23.705Z,47.8
2022-10-09T09:43:40.187Z,41.6
2022-10-09T09:45:55.858Z,49.4
2022-10-09T09:48:12.065Z,43.9
2022-10-09T09:53:11.688Z,45.1
2022-10-09T09:55:27.529Z,45.1
2022-10-09T09:57:58.984Z,45.3
2022-10-09T10:00:14.983Z,45.1
2022-10-09T10:02:31.061Z,44.4
2022-10-09T10:04:47.146Z,44.4
2022-10-09T10:07:03.177Z,44.7
2022-10-09T10:09:19.354Z,46.1
2022-10-09T10:11:35.571Z,46.1
2022-10-09T10:13:51.501Z,46.9
2022-10-09T10:16:07.804Z,46.1
2022-10-09T10:18:23.870Z,46.3
2022-10-09T10:20:40.028Z,46.5
2022-10-09T10:22:56.165Z,45.7
2022-10-09T10:25:12.724Z,45.6
2022-10-09T10:27:28.727Z,45.8
2022-10-09T10:29:44.708Z,45.3
2022-10-09T10:32:01.176Z,42.3
2022-10-09T10:34:17.057Z,38.8
2022-10-09T10:36:33.881Z,36.5
2022-10-09T10:38:49.438Z,34.1
2022-10-09T10:41:06.848Z,32.4
2022-10-09T10:43:21.794Z,31.6
2022-10-09T10:45:37.991Z,30
2022-10-09T10:47:54.291Z,28.7
2022-10-09T10:50:10.491Z,28.2
2022-10-09T10:52:26.730Z,28.1
2022-10-09T10:54:42.952Z,28.1
2022-10-09T10:56:59.166Z,27.3
2022-10-09T10:59:15.344Z,26.4
2022-10-09T11:01:31.603Z,26.6
2022-10-09T11:03:47.855Z,26.6
2022-10-09T11:06:04.110Z,26.3
2022-10-09T11:08:20.210Z,25.8
2022-10-09T11:10:36.444Z,25.9
2022-10-09T11:13:00.993Z,25.7
2022-10-09T11:15:16.989Z,24.8
2022-10-09T11:17:33.375Z,24.5
2022-10-09T11:19:49.432Z,24.5
2022-10-09T11:22:05.689Z,24.4
2022-10-09T11:24:21.954Z,24
2022-10-09T11:26:38.212Z,23.6
2022-10-09T11:28:54.382Z,23.4
2022-10-09T11:31:10.634Z,22.7
2022-10-09T11:33:26.814Z,22.6
2022-10-09T11:35:43.026Z,22.6
2022-10-09T11:37:59.261Z,22.2
2022-10-09T11:40:15.579Z,22.1
2022-10-09T11:42:31.747Z,22.2
2022-10-09T11:44:48.067Z,21.8
2022-10-09T11:47:07.639Z,21.7
2022-10-09T11:49:20.338Z,21.7
2022-10-09T11:51:36.581Z,21.5
2022-10-09T11:56:09.072Z,20.8
2022-10-09T11:58:25.588Z,20.9
2022-10-09T12:00:41.474Z,20.5
2022-10-09T12:02:57.930Z,20.4
2022-10-09T12:05:23.517Z,20.4
2022-10-09T12:07:40.362Z,20.3
2022-10-09T12:09:56.039Z,20.4
2022-10-09T12:12:12.250Z,20.4
2022-10-09T12:14:28.558Z,20.2
2022-10-09T12:16:44.658Z,20.3
2022-10-09T12:19:00.811Z,20.3
2022-10-09T12:21:17.157Z,19.8
2022-10-09T12:23:49.058Z,19.7
2022-10-09T12:26:05.311Z,19.8
2022-10-09T12:28:21.866Z,19.7
2022-10-09T12:30:37.988Z,19.6
2022-10-09T12:32:54.019Z,19.6
2022-10-09T12:35:10.327Z,19.6
2022-10-09T12:37:26.613Z,19.4
2022-10-09T12:39:42.797Z,19.4
2022-10-09T12:41:59.016Z,19.3
2022-10-09T12:44:15.244Z,19.4
2022-10-09T12:46:31.611Z,19.3
2022-10-09T12:48:47.813Z,19.2
2022-10-09T12:51:04.001Z,19.1
2022-10-09T12:55:36.638Z,18.8
2022-10-09T12:57:52.815Z,18.6
2022-10-09T13:02:25.628Z,18.6
2022-10-09T13:04:41.613Z,18.4
2022-10-09T13:09:13.983Z,18.4
2022-10-09T13:11:30.275Z,18.4
2022-10-09T13:13:46.752Z,18.4
2022-10-09T13:16:02.710Z,18.2
2022-10-09T13:18:19.212Z,18.5
2022-10-09T13:20:35.556Z,18.1
2022-10-09T13:22:52.078Z,18.1
2022-10-09T13:25:07.773Z,17.8
2022-10-09T13:27:24.093Z,17.8
2022-10-09T13:29:40.394Z,17.7
2022-10-09T13:31:56.654Z,17.9
2022-10-09T13:34:12.972Z,17.8
2022-10-09T13:36:29.446Z,17.7
2022-10-09T13:38:45.716Z,17.4
2022-10-09T13:41:01.872Z,17.4
2022-10-09T13:43:18.410Z,17.6
2022-10-09T13:45:34.671Z,17.3
2022-10-09T13:47:51.804Z,17.3
2022-10-09T13:50:07.399Z,17.4
2022-10-09T13:52:23.959Z,17.3
2022-10-09T13:54:40.270Z,17.2
2022-10-09T13:56:56.789Z,16.9
2022-10-09T13:59:13.254Z,16.8
2022-10-09T14:01:29.363Z,16.8
2022-10-09T14:03:45.831Z,16.8
2022-10-09T14:06:02.118Z,16.6
2022-10-09T14:08:18.653Z,16.6
2022-10-09T14:10:34.930Z,16.8
2022-10-09T14:12:52.054Z,16.4
2022-10-09T14:15:07.734Z,16.4
2022-10-09T14:17:24.222Z,16.3
2022-10-09T14:19:40.513Z,16.4
2022-10-09T14:21:57.098Z,16.4
2022-10-09T14:24:13.305Z,16.4
2022-10-09T14:26:29.697Z,16
2022-10-09T14:28:46.148Z,15.9
2022-10-09T14:31:02.548Z,16.1
2022-10-09T14:33:18.987Z,15.9
2022-10-09T14:35:35.314Z,15.8
2022-10-09T14:37:58.341Z,15.9
2022-10-09T14:40:14.752Z,15.9
2022-10-09T14:42:30.920Z,15.9
2022-10-09T14:44:47.469Z,15.7
2022-10-09T14:47:03.543Z,15.6
2022-10-09T14:49:19.850Z,15.5
2022-10-09T14:51:37.016Z,15.8
2022-10-09T14:53:52.498Z,15.6
2022-10-09T14:56:08.876Z,15.6
2022-10-09T14:58:25.174Z,15.7
2022-10-09T15:00:41.517Z,15.3
2022-10-09T15:02:59.598Z,15.5
2022-10-09T15:05:14.167Z,15.2
2022-10-09T15:07:30.583Z,15.2
2022-10-09T15:09:47.510Z,15.1
2022-10-09T15:12:03.171Z,15.4
2022-10-09T15:14:19.636Z,15
2022-10-09T15:16:35.911Z,14.9
2022-10-09T15:18:52.126Z,14.9
2022-10-09T15:21:08.615Z,14.9
2022-10-09T15:23:24.912Z,14.7
2022-10-09T15:25:41.256Z,14.7
2022-10-09T15:27:58.151Z,14.6
2022-10-09T15:30:14.433Z,19.6
2022-10-09T15:32:30.231Z,14.3
2022-10-09T15:34:46.326Z,14.6
2022-10-09T15:37:02.594Z,14.6
2022-10-09T15:39:19.268Z,14.2
2022-10-09T15:41:36.088Z,19.3
2022-10-09T15:43:52.827Z,19.4
2022-10-09T15:46:09.558Z,18.6
2022-10-09T15:48:38.049Z,18.5
2022-10-09T15:50:54.716Z,18.6
2022-10-09T15:53:11.350Z,18.9
2022-10-09T15:55:28.034Z,18.9
2022-10-09T15:57:44.684Z,19
2022-10-09T16:00:01.503Z,19.1
2022-10-09T16:02:18.367Z,17.3
2022-10-09T16:04:34.086Z,16.9
2022-10-09T16:06:50.719Z,13.2
2022-10-09T16:09:07.696Z,16.8
2022-10-09T16:11:25.969Z,16
2022-10-09T16:13:41.906Z,16.3
2022-10-09T16:15:58.586Z,16.2
2022-10-09T16:18:14.313Z,16.1
2022-10-09T16:20:30.068Z,12.9
2022-10-09T16:22:46.993Z,12.8
2022-10-09T16:25:02.935Z,15.9
2022-10-09T16:27:19.670Z,12.8
2022-10-09T16:29:36.255Z,16.6
2022-10-09T16:31:51.783Z,12.6
2022-10-09T16:34:08.593Z,12.9
2022-10-09T16:36:25.782Z,16.5
2022-10-09T16:38:42.718Z,16
2022-10-09T16:41:15.208Z,16.3
2022-10-09T16:43:31.894Z,16.4
2022-10-09T16:45:49.013Z,16
2022-10-09T16:48:05.836Z,15.9
2022-10-09T16:50:22.691Z,15.4
2022-10-09T16:52:39.910Z,15.9
2022-10-09T16:54:59.595Z,15.9
2022-10-09T16:57:13.581Z,15.8
2022-10-09T16:59:30.596Z,16.1
2022-10-09T17:01:47.537Z,15.6
2022-10-09T17:04:03.368Z,15.8
2022-10-09T17:06:19.954Z,12.1
2022-10-09T17:08:36.934Z,16.2
2022-10-09T17:10:53.989Z,16
2022-10-09T17:13:10.953Z,15.8
2022-10-09T17:15:27.883Z,14.9
2022-10-09T17:17:44.817Z,15.9
2022-10-09T17:20:01.745Z,15.3
2022-10-09T17:22:18.749Z,15.4
2022-10-09T17:24:34.614Z,15.4
2022-10-09T17:26:51.347Z,11.6
2022-10-09T17:29:08.276Z,16
2022-10-09T17:31:25.113Z,15.6
2022-10-09T17:33:42.210Z,15.7
2022-10-09T17:35:59.110Z,16
2022-10-09T17:38:16.740Z,16
2022-10-09T17:40:33.123Z,16.5
2022-10-09T17:42:50.447Z,15.4
2022-10-09T17:45:07.063Z,16.3
2022-10-09T17:47:23.966Z,15.8
2022-10-09T17:49:41.582Z,15.5
2022-10-09T17:51:57.847Z,15.3
2022-10-09T17:54:14.921Z,14.5
2022-10-09T17:56:31.788Z,15.5
2022-10-09T17:58:48.803Z,15.5
2022-10-09T18:01:05.891Z,15
2022-10-09T18:03:22.788Z,14.8
2022-10-09T18:05:41.290Z,14.9
2022-10-09T18:07:55.529Z,15.3
2022-10-09T18:10:12.242Z,11.2
2022-10-09T18:12:29.623Z,15.5
2022-10-09T18:14:46.186Z,14.4
2022-10-09T18:17:03.283Z,14.8
2022-10-09T18:19:20.265Z,15.3
2022-10-09T18:21:37.242Z,14.5
2022-10-09T18:23:54.265Z,15.4
2022-10-09T18:26:11.168Z,14.4
2022-10-09T18:30:43.954Z,11.5
2022-10-09T18:33:01.043Z,15.8
2022-10-09T18:35:17.054Z,15.1
2022-10-09T18:37:33.785Z,11.3
2022-10-09T18:39:50.023Z,15.2
2022-10-09T18:42:06.620Z,10.9
2022-10-09T18:44:23.748Z,15.3
2022-10-09T18:46:40.802Z,14.8
2022-10-09T18:48:57.803Z,15.1
2022-10-09T18:51:14.801Z,15.5
2022-10-09T18:53:31.952Z,15.7
2022-10-09T18:55:48.988Z,15
2022-10-09T18:58:06.130Z,15.3
2022-10-09T19:00:22.864Z,15.1
2022-10-09T19:04:56.858Z,14.8
2022-10-09T19:07:13.896Z,14.4
2022-10-09T19:09:29.953Z,14.6
2022-10-09T19:11:45.734Z,10.5
2022-10-09T19:14:02.457Z,10.6
2022-10-09T19:16:20.075Z,14.9
2022-10-09T19:18:36.661Z,14.3
2022-10-09T19:20:53.587Z,14.2
2022-10-09T19:23:10.617Z,15.2
2022-10-09T19:25:27.703Z,14.2
2022-10-09T19:27:44.643Z,14.1
2022-10-09T19:30:01.786Z,14
2022-10-09T19:32:20.300Z,14
2022-10-09T19:34:34.286Z,10.4
2022-10-09T19:36:51.469Z,14.1
2022-10-09T19:39:08.490Z,14.2
2022-10-09T19:41:24.575Z,14.2
2022-10-09T19:43:40.937Z,10
2022-10-09T19:45:57.388Z,10.3
2022-10-09T19:48:14.421Z,14.4
2022-10-09T19:50:31.495Z,14.5
2022-10-09T19:52:48.535Z,13.8
2022-10-09T19:55:05.559Z,13.6
2022-10-09T19:57:22.591Z,13.8
2022-10-09T19:59:39.537Z,12.9
2022-10-09T20:01:57.582Z,14.4
2022-10-09T20:04:13.541Z,13.8
2022-10-09T20:06:29.541Z,13.4
2022-10-09T20:08:46.318Z,9.9
2022-10-09T20:11:02.439Z,13.4
2022-10-09T20:13:18.507Z,9.6
2022-10-09T20:15:34.708Z,9.7
2022-10-09T20:17:51.642Z,9.8
2022-10-09T20:20:08.823Z,13.7
2022-10-09T20:22:26.370Z,13.4
2022-10-09T20:24:42.899Z,14.1
2022-10-09T20:26:59.901Z,13.4
2022-10-09T20:29:17.205Z,13.8
2022-10-09T20:31:34.082Z,13.1
2022-10-09T20:33:50.188Z,13.6
2022-10-09T20:36:06.140Z,9.9
2022-10-09T20:38:25.670Z,10.1
2022-10-09T20:40:40.148Z,13.4
2022-10-09T20:42:57.307Z,12.3
2022-10-09T20:45:14.352Z,13.2
2022-10-09T20:47:31.383Z,13.9
2022-10-09T20:49:48.346Z,13.6
2022-10-09T20:52:05.499Z,13.1
2022-10-09T20:54:22.383Z,12.8
2022-10-09T20:56:39.484Z,13.6
2022-10-09T20:58:56.524Z,13.1
2022-10-09T21:01:13.594Z,13.8
2022-10-09T21:03:30.574Z,13.3
2022-10-09T21:05:47.646Z,13.4
2022-10-09T21:08:04.519Z,13.1
2022-10-09T21:10:21.640Z,12.3
2022-10-09T21:12:38.689Z,13.6
2022-10-09T21:14:55.853Z,12.4
2022-10-09T21:17:12.761Z,12.5
2022-10-09T21:19:29.094Z,11.6
2022-10-09T21:21:50.147Z,9
2022-10-09T21:24:01.927Z,13.1
2022-10-09T21:26:18.603Z,9.2
2022-10-09T21:28:35.084Z,12.9
2022-10-09T21:30:51.800Z,9.2
2022-10-09T21:33:09.094Z,13.2
2022-10-09T21:35:26.041Z,13.1
2022-10-09T21:37:58.600Z,11.9
2022-10-09T21:40:15.917Z,13
2022-10-09T21:42:32.625Z,12.4
2022-10-09T21:44:49.645Z,11.9
2022-10-09T21:47:06.825Z,12.5
2022-10-09T21:49:23.741Z,12.1
2022-10-09T21:51:40.703Z,12.6
2022-10-09T21:53:57.784Z,11.9
2022-10-09T21:56:15.244Z,12.3
2022-10-09T21:58:30.925Z,13.5
2022-10-09T22:00:47.666Z,8.6
2022-10-09T22:03:04.685Z,12.4
2022-10-09T22:05:21.009Z,12.9
2022-10-09T22:07:37.753Z,8.6
2022-10-09T22:09:54.877Z,12.1
2022-10-09T22:12:11.906Z,11.5
2022-10-09T22:14:28.948Z,12.1
2022-10-09T22:16:46.063Z,12.4
2022-10-09T22:19:03.147Z,12.5
2022-10-09T22:21:20.258Z,12.5
2022-10-09T22:23:37.298Z,12.5
2022-10-09T22:25:54.425Z,12.6
2022-10-09T22:28:11.437Z,12.4
2022-10-09T22:30:28.333Z,11.8
2022-10-09T22:32:45.339Z,12.8
2022-10-09T22:35:02.432Z,12.4
2022-10-09T22:37:18.453Z,12.8
2022-10-09T22:39:35.305Z,8.3
2022-10-09T22:41:52.314Z,11.9
2022-10-09T22:44:09.460Z,11.8
2022-10-09T22:46:25.646Z,12.4
2022-10-09T22:48:42.511Z,8.6
2022-10-09T22:50:59.556Z,13.1
2022-10-09T22:53:16.907Z,12.1
2022-10-09T22:55:33.735Z,11.8
2022-10-09T22:57:50.730Z,12.8
2022-10-09T23:00:07.012Z,12.8
2022-10-09T23:02:23.055Z,8.4
2022-10-09T23:04:39.333Z,8.4
2022-10-09T23:06:56.183Z,8.6
2022-10-09T23:09:13.396Z,12.2
2022-10-09T23:11:30.704Z,12.1
2022-10-09T23:13:47.501Z,12.1
2022-10-09T23:16:04.665Z,12
2022-10-09T23:18:21.764Z,12.3
2022-10-09T23:20:39.066Z,11.7
2022-10-09T23:22:55.993Z,11.6
2022-10-09T23:25:12.693Z,11.3
2022-10-09T23:27:29.224Z,8
2022-10-09T23:29:46.521Z,12.2
2022-10-09T23:32:03.682Z,11.3
2022-10-09T23:34:20.969Z,12.4
2022-10-09T23:36:38.130Z,11.8
2022-10-09T23:38:55.132Z,11.9
2022-10-09T23:41:12.527Z,12.1
2022-10-09T23:43:29.475Z,11.8
2022-10-09T23:45:46.863Z,11.4
2022-10-09T23:48:03.785Z,11.9
2022-10-09T23:50:21.721Z,12
2022-10-09T23:52:38.061Z,12.1
2022-10-09T23:54:55.118Z,12.2
2022-10-09T23:57:10.878Z,7.9
2022-10-09T23:59:27.494Z,7.9
